createdAt,value
2022-11-20T00:01:11.200Z,5.00
2022-11-20T00:03:38.511Z,5.00
2022-11-20T00:06:06.887Z,5.00
2022-11-20T00:08:34.368Z,4.90
2022-11-20T00:11:05.351Z,4.90
2022-11-20T00:13:32.669Z,4.90
2022-11-20T00:16:00.225Z,5.00
2022-11-20T00:18:27.744Z,5.00
2022-11-20T00:20:54.896Z,5.00
2022-11-20T00:23:21.811Z,5.00
2022-11-20T00:25:48.732Z,5.10
2022-11-20T00:28:15.563Z,5.20
2022-11-20T00:30:42.446Z,5.30
2022-11-20T00:33:09.253Z,5.40
2022-11-20T00:35:36.173Z,5.40
2022-11-20T00:38:03.113Z,5.50
2022-11-20T00:40:30.037Z,5.50
2022-11-20T00:42:56.956Z,5.50
2022-11-20T00:45:23.758Z,5.40
2022-11-20T00:47:50.581Z,5.40
2022-11-20T00:50:17.404Z,5.30
2022-11-20T00:52:44.254Z,5.30
2022-11-20T00:55:11.118Z,5.20
2022-11-20T00:57:38.021Z,5.20
2022-11-20T01:00:05.174Z,5.30
2022-11-20T01:02:32.030Z,5.40
2022-11-20T01:04:58.880Z,5.50
2022-11-20T01:07:25.819Z,5.50
2022-11-20T01:09:52.931Z,5.50
2022-11-20T01:12:19.826Z,5.50
2022-11-20T01:14:48.030Z,5.50
2022-11-20T01:17:14.919Z,5.60
2022-11-20T01:19:41.769Z,5.60
2022-11-20T01:22:08.674Z,5.70
2022-11-20T01:24:35.550Z,5.70
2022-11-20T01:27:02.393Z,5.60
2022-11-20T01:29:29.335Z,5.60
2022-11-20T01:31:56.276Z,5.60
2022-11-20T01:34:23.672Z,5.60
2022-11-20T01:36:50.787Z,5.60
2022-11-20T01:39:19.903Z,5.60
2022-11-20T01:42:09.881Z,5.50
2022-11-20T01:44:49.387Z,5.50
2022-11-20T01:47:18.596Z,5.50
2022-11-20T01:49:48.406Z,5.60
2022-11-20T01:52:18.421Z,5.60
2022-11-20T01:54:50.239Z,5.60
2022-11-20T01:57:18.443Z,5.60
2022-11-20T01:59:53.852Z,5.60
2022-11-20T02:02:21.647Z,5.70
2022-11-20T02:04:49.423Z,5.70
2022-11-20T02:07:17.093Z,5.60
2022-11-20T02:09:44.057Z,5.60
2022-11-20T02:12:31.389Z,5.70
2022-11-20T02:14:58.325Z,5.60
2022-11-20T02:17:25.754Z,5.70
2022-11-20T02:19:52.704Z,5.70
2022-11-20T02:22:25.493Z,5.70
2022-11-20T02:24:52.423Z,5.80
2022-11-20T02:27:19.473Z,5.80
2022-11-20T02:29:46.543Z,5.70
2022-11-20T02:32:20.381Z,5.70
2022-11-20T02:34:47.268Z,5.80
2022-11-20T02:37:15.006Z,5.80
2022-11-20T02:39:42.218Z,5.80
2022-11-20T02:42:09.043Z,5.80
2022-11-20T02:44:36.044Z,5.80
2022-11-20T02:47:03.010Z,5.80
2022-11-20T02:49:29.850Z,5.80
2022-11-20T02:51:56.707Z,5.80
2022-11-20T02:54:23.993Z,5.80
2022-11-20T02:56:51.031Z,5.80
2022-11-20T02:59:18.008Z,5.80
2022-11-20T03:01:45.052Z,5.80
2022-11-20T03:04:12.036Z,5.80
2022-11-20T03:06:38.878Z,5.80
2022-11-20T03:09:05.717Z,5.80
2022-11-20T03:11:32.697Z,5.80
2022-11-20T03:14:02.532Z,5.70
2022-11-20T03:16:29.359Z,5.80
2022-11-20T03:18:56.254Z,5.80
2022-11-20T03:21:23.438Z,5.70
2022-11-20T03:23:50.259Z,5.70
2022-11-20T03:26:18.373Z,5.70
2022-11-20T03:28:49.457Z,5.80
2022-11-20T03:31:17.320Z,5.70
2022-11-20T03:33:44.223Z,5.70
2022-11-20T03:36:13.050Z,5.80
2022-11-20T03:38:40.305Z,5.80
2022-11-20T03:41:08.434Z,5.80
2022-11-20T03:43:35.374Z,5.80
2022-11-20T03:46:02.224Z,5.80
2022-11-20T03:48:29.109Z,5.70
2022-11-20T03:51:09.518Z,5.80
2022-11-20T03:53:36.337Z,5.80
2022-11-20T03:56:03.255Z,5.80
2022-11-20T03:58:30.230Z,5.80
2022-11-20T04:00:57.086Z,5.80
2022-11-20T04:03:24.110Z,5.80
2022-11-20T04:05:51.032Z,5.80
2022-11-20T04:08:17.881Z,5.80
2022-11-20T04:10:44.720Z,5.90
2022-11-20T04:13:11.571Z,5.80
2022-11-20T04:15:38.727Z,5.70
2022-11-20T04:18:05.646Z,5.70
2022-11-20T04:20:32.505Z,5.70
2022-11-20T04:22:59.376Z,5.70
2022-11-20T04:25:26.327Z,5.60
2022-11-20T04:27:53.131Z,5.70
2022-11-20T04:30:20.001Z,5.70
2022-11-20T04:32:46.852Z,5.70
2022-11-20T04:35:13.732Z,5.70
2022-11-20T04:37:40.573Z,5.80
2022-11-20T04:40:07.680Z,5.80
2022-11-20T04:42:34.665Z,5.80
2022-11-20T04:45:01.748Z,5.80
2022-11-20T04:47:28.823Z,5.90
2022-11-20T04:49:55.841Z,5.90
2022-11-20T04:52:22.824Z,5.90
2022-11-20T04:54:49.644Z,5.90
2022-11-20T04:57:16.523Z,5.80
2022-11-20T04:59:43.430Z,5.80
2022-11-20T05:02:10.464Z,5.80
2022-11-20T05:04:37.394Z,5.90
2022-11-20T05:07:04.454Z,5.90
2022-11-20T05:09:31.378Z,5.90
2022-11-20T05:11:58.159Z,5.90
2022-11-20T05:14:25.059Z,5.90
2022-11-20T05:16:52.167Z,5.90
2022-11-20T05:19:19.304Z,5.90
2022-11-20T05:21:46.549Z,5.90
2022-11-20T05:24:13.373Z,5.90
2022-11-20T05:26:40.308Z,5.90
2022-11-20T05:29:07.089Z,5.90
2022-11-20T05:31:34.087Z,5.90
2022-11-20T05:34:00.964Z,5.90
2022-11-20T05:36:28.081Z,5.90
2022-11-20T05:39:00.994Z,5.90
2022-11-20T05:41:28.622Z,5.90
2022-11-20T05:43:56.856Z,5.90
2022-11-20T05:46:28.197Z,5.90
2022-11-20T05:48:56.522Z,5.90
2022-11-20T05:51:23.661Z,5.90
2022-11-20T05:53:50.557Z,5.90
2022-11-20T05:56:18.613Z,5.90
2022-11-20T05:58:45.831Z,5.90
2022-11-20T06:01:14.318Z,5.90
2022-11-20T06:03:43.399Z,5.90
2022-11-20T06:06:10.399Z,5.90
2022-11-20T06:08:37.351Z,5.90
2022-11-20T06:11:05.217Z,5.90
2022-11-20T06:13:32.409Z,5.90
2022-11-20T06:15:59.450Z,5.80
2022-11-20T06:18:27.151Z,5.80
2022-11-20T06:21:00.651Z,5.80
2022-11-20T06:25:55.010Z,5.70
2022-11-20T06:28:21.843Z,5.70
2022-11-20T06:30:48.998Z,5.70
2022-11-20T06:33:15.878Z,5.70
2022-11-20T06:35:42.709Z,5.70
2022-11-20T06:38:09.553Z,5.70
2022-11-20T06:40:36.412Z,5.70
2022-11-20T06:43:03.359Z,5.70
2022-11-20T06:45:30.256Z,5.80
2022-11-20T06:47:58.427Z,5.70
2022-11-20T06:50:25.363Z,5.60
2022-11-20T06:52:52.252Z,5.60
2022-11-20T06:55:19.060Z,5.60
2022-11-20T06:57:45.999Z,5.60
2022-11-20T07:00:13.146Z,5.60
2022-11-20T07:02:40.108Z,5.60
2022-11-20T07:05:07.450Z,5.60
2022-11-20T07:07:34.412Z,5.60
2022-11-20T07:10:01.238Z,5.60
2022-11-20T07:12:28.153Z,5.50
2022-11-20T07:14:55.024Z,5.60
2022-11-20T07:17:22.124Z,5.50
2022-11-20T07:19:49.190Z,5.60
2022-11-20T07:22:16.164Z,5.60
2022-11-20T07:24:45.951Z,5.60
2022-11-20T07:27:13.142Z,5.60
2022-11-20T07:29:40.759Z,5.60
2022-11-20T07:32:07.589Z,5.60
2022-11-20T07:34:34.404Z,5.60
2022-11-20T07:37:03.832Z,5.60
2022-11-20T07:39:34.410Z,5.60
2022-11-20T07:42:01.277Z,5.70
2022-11-20T07:44:28.189Z,5.60
2022-11-20T07:46:55.018Z,5.70
2022-11-20T07:49:22.236Z,5.70
2022-11-20T07:51:52.056Z,5.70
2022-11-20T07:54:18.992Z,5.70
2022-11-20T07:56:45.814Z,5.70
2022-11-20T07:59:13.017Z,5.70
2022-11-20T08:01:40.364Z,5.80
2022-11-20T08:04:07.217Z,5.80
2022-11-20T08:06:34.016Z,5.80
2022-11-20T08:09:00.806Z,5.80
2022-11-20T08:11:46.483Z,5.80
2022-11-20T08:14:13.320Z,5.80
2022-11-20T08:16:43.559Z,5.80
2022-11-20T08:19:10.484Z,5.80
2022-11-20T08:21:38.506Z,5.90
2022-11-20T08:24:06.200Z,5.90
2022-11-20T08:26:33.166Z,6.00
2022-11-20T08:29:00.537Z,6.00
2022-11-20T08:31:27.983Z,6.00
2022-11-20T08:33:54.901Z,6.00
2022-11-20T08:36:22.177Z,6.00
2022-11-20T08:38:53.473Z,6.00
2022-11-20T08:41:29.703Z,6.10
2022-11-20T08:44:07.912Z,6.10
2022-11-20T08:46:35.041Z,6.10
2022-11-20T08:49:02.084Z,6.20
2022-11-20T08:51:28.873Z,6.20
2022-11-20T08:53:55.713Z,6.30
2022-11-20T08:56:22.579Z,6.30
2022-11-20T08:59:18.007Z,6.40
2022-11-20T09:01:37.839Z,6.40
2022-11-20T09:04:05.908Z,6.40
2022-11-20T09:06:32.726Z,6.40
2022-11-20T09:09:03.447Z,6.50
2022-11-20T09:11:33.184Z,6.60
2022-11-20T09:14:00.036Z,6.60
2022-11-20T09:16:26.910Z,6.70
2022-11-20T09:19:07.200Z,6.70
2022-11-20T09:21:40.175Z,6.70
2022-11-20T09:24:07.186Z,6.70
2022-11-20T09:26:34.062Z,6.80
2022-11-20T09:29:00.918Z,6.80
2022-11-20T09:31:27.798Z,6.80
2022-11-20T09:33:54.736Z,6.80
2022-11-20T09:36:21.670Z,6.90
2022-11-20T09:38:48.942Z,6.90
2022-11-20T09:41:27.742Z,6.90
2022-11-20T09:43:54.666Z,6.90
2022-11-20T09:46:27.767Z,7.00
2022-11-20T09:49:13.037Z,7.00
2022-11-20T09:51:59.669Z,7.00
2022-11-20T09:54:32.921Z,7.10
2022-11-20T09:57:18.312Z,7.00
2022-11-20T09:59:47.201Z,7.10
2022-11-20T10:02:17.425Z,7.10
2022-11-20T10:04:50.508Z,7.10
2022-11-20T10:10:52.292Z,7.20
2022-11-20T10:13:23.224Z,7.20
2022-11-20T10:16:09.238Z,7.20
2022-11-20T10:18:36.042Z,7.30
2022-11-20T10:21:11.707Z,7.30
2022-11-20T10:23:41.470Z,7.40
2022-11-20T10:26:27.729Z,7.40
2022-11-20T10:28:59.228Z,7.40
2022-11-20T10:31:35.838Z,7.50
2022-11-20T10:34:18.218Z,7.50
2022-11-20T10:36:55.728Z,7.50
2022-11-20T10:39:33.723Z,7.60
2022-11-20T10:42:00.920Z,7.60
2022-11-20T10:44:48.798Z,7.70
2022-11-20T10:47:19.401Z,7.70
2022-11-20T10:49:48.024Z,7.80
2022-11-20T10:52:14.972Z,7.80
2022-11-20T10:54:50.932Z,7.80
2022-11-20T10:57:20.631Z,7.90
2022-11-20T10:59:53.358Z,7.90
2022-11-20T11:02:21.893Z,7.90
2022-11-20T11:04:50.678Z,7.90
2022-11-20T11:07:26.370Z,7.90
2022-11-20T11:09:54.451Z,7.90
2022-11-20T11:12:23.312Z,7.90
2022-11-20T11:14:51.672Z,7.90
2022-11-20T11:17:23.123Z,8.00
2022-11-20T11:20:22.417Z,8.00
2022-11-20T11:22:50.963Z,8.10
2022-11-20T11:25:21.836Z,8.20
2022-11-20T11:27:49.256Z,8.20
2022-11-20T11:30:17.162Z,8.30
2022-11-20T11:32:44.521Z,8.30
2022-11-20T11:35:21.929Z,8.40
2022-11-20T11:37:49.461Z,8.50
2022-11-20T11:40:25.451Z,8.50
2022-11-20T11:42:57.817Z,8.70
2022-11-20T11:45:24.872Z,8.70
2022-11-20T11:47:52.834Z,8.80
2022-11-20T11:50:21.504Z,8.70
2022-11-20T11:53:01.295Z,8.90
2022-11-20T11:55:28.165Z,8.90
2022-11-20T11:58:13.639Z,9.00
2022-11-20T12:00:42.300Z,9.00
2022-11-20T12:03:44.597Z,9.10
2022-11-20T12:06:18.099Z,9.10
2022-11-20T12:08:47.907Z,9.20
2022-11-20T12:11:21.135Z,9.20
2022-11-20T12:13:51.050Z,9.30
2022-11-20T12:16:19.901Z,9.20
2022-11-20T12:18:49.301Z,9.30
2022-11-20T12:21:21.654Z,9.40
2022-11-20T12:24:00.463Z,9.50
2022-11-20T12:26:46.896Z,9.50
2022-11-20T12:29:19.374Z,9.50
2022-11-20T12:32:04.863Z,9.60
2022-11-20T12:34:50.004Z,9.60
2022-11-20T12:37:23.191Z,9.60
2022-11-20T12:39:51.802Z,9.60
2022-11-20T12:42:49.164Z,9.70
2022-11-20T12:45:16.024Z,9.70
2022-11-20T12:47:42.964Z,9.70
2022-11-20T12:50:16.253Z,9.70
2022-11-20T12:52:48.073Z,9.70
2022-11-20T12:55:18.734Z,9.80
2022-11-20T12:58:05.462Z,9.70
2022-11-20T13:00:32.802Z,9.70
2022-11-20T13:02:59.645Z,9.70
2022-11-20T13:05:26.518Z,9.70
2022-11-20T13:07:54.320Z,9.80
2022-11-20T13:10:28.190Z,9.80
2022-11-20T13:12:58.641Z,9.80
2022-11-20T13:15:48.890Z,9.90
2022-11-20T13:18:15.807Z,9.90
2022-11-20T13:20:46.852Z,9.90
2022-11-20T13:23:23.904Z,9.90
2022-11-20T13:25:51.296Z,9.90
2022-11-20T13:28:18.871Z,9.90
2022-11-20T13:34:07.182Z,9.80
2022-11-20T13:37:05.576Z,9.70
2022-11-20T13:39:34.128Z,9.70
2022-11-20T13:42:21.198Z,9.70
2022-11-20T13:44:51.909Z,9.70
2022-11-20T13:47:21.617Z,9.70
2022-11-20T13:49:49.537Z,9.70
2022-11-20T13:52:16.404Z,9.60
2022-11-20T13:54:53.196Z,9.70
2022-11-20T13:57:29.322Z,9.70
2022-11-20T14:00:02.601Z,9.70
2022-11-20T14:02:31.065Z,9.60
2022-11-20T14:04:59.678Z,9.60
2022-11-20T14:07:36.283Z,9.60
2022-11-20T14:10:03.370Z,9.60
2022-11-20T14:12:31.754Z,9.50
2022-11-20T14:14:58.991Z,9.50
2022-11-20T14:17:31.254Z,9.50
2022-11-20T14:20:03.711Z,9.50
2022-11-20T14:22:30.710Z,9.50
2022-11-20T14:25:03.535Z,9.50
2022-11-20T14:27:30.448Z,9.50
2022-11-20T14:29:57.786Z,9.50
2022-11-20T14:32:29.122Z,9.50
2022-11-20T14:34:57.686Z,9.50
2022-11-20T14:37:26.969Z,9.50
2022-11-20T14:39:54.925Z,9.50
2022-11-20T14:42:28.725Z,9.50
2022-11-20T14:44:57.105Z,9.50
2022-11-20T14:47:26.919Z,9.60
2022-11-20T14:49:54.525Z,9.60
2022-11-20T14:52:22.555Z,9.60
2022-11-20T14:54:50.983Z,9.60
2022-11-20T14:57:22.307Z,9.60
2022-11-20T14:59:49.226Z,9.60
2022-11-20T15:02:16.261Z,9.60
2022-11-20T15:04:47.006Z,9.60
2022-11-20T15:07:24.111Z,9.60
2022-11-20T15:10:16.062Z,9.60
2022-11-20T15:15:22.031Z,9.70
2022-11-20T15:17:48.961Z,9.70
2022-11-20T15:20:16.941Z,9.70
2022-11-20T15:22:43.774Z,9.70
2022-11-20T15:25:14.608Z,9.70
2022-11-20T15:27:41.836Z,9.70
2022-11-20T15:30:15.334Z,9.70
2022-11-20T15:32:43.218Z,9.70
2022-11-20T15:35:10.857Z,9.70
2022-11-20T15:37:38.103Z,9.70
2022-11-20T15:40:05.464Z,9.70
2022-11-20T15:42:32.434Z,9.70
2022-11-20T15:44:59.279Z,9.80
2022-11-20T15:47:27.872Z,9.70
2022-11-20T15:49:54.973Z,9.70
2022-11-20T15:52:22.449Z,9.70
2022-11-20T15:54:49.375Z,9.70
2022-11-20T15:57:16.456Z,9.80
2022-11-20T15:59:43.395Z,9.80
2022-11-20T16:02:15.944Z,9.80
2022-11-20T16:04:45.719Z,9.80
2022-11-20T16:07:12.711Z,9.70
2022-11-20T16:09:39.674Z,9.80
2022-11-20T16:12:06.822Z,9.70
2022-11-20T16:14:52.126Z,9.80
2022-11-20T16:17:38.875Z,9.80
2022-11-20T16:20:06.002Z,9.80
2022-11-20T16:22:32.795Z,9.80
2022-11-20T16:24:59.712Z,9.80
2022-11-20T16:27:26.515Z,9.80
2022-11-20T16:29:53.387Z,9.70
2022-11-20T16:32:20.185Z,9.70
2022-11-20T16:34:47.150Z,9.80
2022-11-20T16:37:14.018Z,9.70
2022-11-20T16:39:44.890Z,9.70
2022-11-20T16:42:11.862Z,9.70
2022-11-20T16:44:38.675Z,9.70
2022-11-20T16:47:05.517Z,9.70
2022-11-20T16:49:33.474Z,9.70
2022-11-20T16:52:00.335Z,9.70
2022-11-20T16:54:27.976Z,9.70
2022-11-20T16:56:55.096Z,9.70
2022-11-20T16:59:21.966Z,9.60
2022-11-20T17:01:50.990Z,9.60
2022-11-20T17:04:17.988Z,9.70
2022-11-20T17:06:44.928Z,9.70
2022-11-20T17:09:13.013Z,9.60
2022-11-20T17:11:39.973Z,9.70
2022-11-20T17:14:09.784Z,9.60
2022-11-20T17:16:37.625Z,9.60
2022-11-20T17:19:05.628Z,9.60
2022-11-20T17:21:33.084Z,9.60
2022-11-20T17:24:03.680Z,9.60
2022-11-20T17:26:30.861Z,9.60
2022-11-20T17:29:14.488Z,9.60
2022-11-20T17:31:41.719Z,9.60
2022-11-20T17:34:11.153Z,9.50
2022-11-20T17:36:44.899Z,9.50
2022-11-20T17:39:13.218Z,9.50
2022-11-20T17:41:40.174Z,9.50
2022-11-20T17:44:07.037Z,9.60
2022-11-20T17:46:34.176Z,9.60
2022-11-20T17:49:01.699Z,9.60
2022-11-20T17:51:29.644Z,9.60
2022-11-20T17:54:01.221Z,9.50
2022-11-20T17:56:50.993Z,9.50
2022-11-20T17:59:19.008Z,9.50
2022-11-20T18:01:46.297Z,9.50
2022-11-20T18:04:13.397Z,9.40
2022-11-20T18:06:40.334Z,9.40
2022-11-20T18:09:07.271Z,9.40
2022-11-20T18:11:43.303Z,9.40
2022-11-20T18:14:26.676Z,9.40
2022-11-20T18:16:55.712Z,9.30
2022-11-20T18:19:24.358Z,9.30
2022-11-20T18:21:51.337Z,9.30
2022-11-20T18:24:18.439Z,9.30
2022-11-20T18:26:45.523Z,9.30
2022-11-20T18:29:13.184Z,9.20
2022-11-20T18:31:40.539Z,9.20
2022-11-20T18:34:11.783Z,9.20
2022-11-20T18:36:39.005Z,9.20
2022-11-20T18:39:06.115Z,9.20
2022-11-20T18:41:51.729Z,9.10
2022-11-20T18:44:39.325Z,9.10
2022-11-20T18:47:14.204Z,9.10
2022-11-20T18:49:51.477Z,9.10
2022-11-20T18:52:28.548Z,9.00
2022-11-20T18:54:55.675Z,9.00
2022-11-20T18:57:24.491Z,9.00
2022-11-20T18:59:51.529Z,9.00
2022-11-20T19:02:19.495Z,8.90
2022-11-20T19:04:46.464Z,9.00
2022-11-20T19:07:13.740Z,9.00
2022-11-20T19:09:41.267Z,8.90
2022-11-20T19:12:08.893Z,9.00
2022-11-20T19:14:35.970Z,8.90
2022-11-20T19:17:03.725Z,8.90
2022-11-20T19:19:30.644Z,8.90
2022-11-20T19:21:57.489Z,8.90
2022-11-20T19:24:24.596Z,8.90
2022-11-20T19:26:51.579Z,8.90
2022-11-20T19:29:19.253Z,8.90
2022-11-20T19:31:46.068Z,8.90
2022-11-20T19:34:13.057Z,8.90
2022-11-20T19:36:44.735Z,8.90
2022-11-20T19:39:12.276Z,8.90
2022-11-20T19:41:39.787Z,8.90
2022-11-20T19:44:16.099Z,8.90
2022-11-20T19:46:43.514Z,8.90
2022-11-20T19:49:11.623Z,8.90
2022-11-20T19:51:39.320Z,8.90
2022-11-20T19:54:06.253Z,8.90
2022-11-20T19:56:33.961Z,8.90
2022-11-20T19:59:01.346Z,8.90
2022-11-20T20:01:29.484Z,8.90
2022-11-20T20:03:57.787Z,8.80
2022-11-20T20:06:25.555Z,8.90
2022-11-20T20:08:56.763Z,8.80
2022-11-20T20:11:24.737Z,8.90
2022-11-20T20:13:51.882Z,8.80
2022-11-20T20:16:19.921Z,8.80
2022-11-20T20:18:47.209Z,8.80
2022-11-20T20:21:15.847Z,8.80
2022-11-20T20:23:43.405Z,8.80
2022-11-20T20:26:10.917Z,8.80
2022-11-20T20:28:37.987Z,8.80
2022-11-20T20:31:08.686Z,8.70
2022-11-20T20:33:37.312Z,8.70
2022-11-20T20:36:05.227Z,8.70
2022-11-20T20:38:32.119Z,8.60
2022-11-20T20:40:58.969Z,8.60
2022-11-20T20:43:26.097Z,8.60
2022-11-20T20:45:53.233Z,8.60
2022-11-20T20:48:21.486Z,8.60
2022-11-20T20:50:58.217Z,8.60
2022-11-20T20:53:25.452Z,8.60
2022-11-20T20:55:59.520Z,8.60
2022-11-20T20:58:27.202Z,8.60
2022-11-20T21:00:54.065Z,8.60
2022-11-20T21:03:21.220Z,8.60
2022-11-20T21:05:55.387Z,8.60
2022-11-20T21:08:22.216Z,8.60
2022-11-20T21:10:49.636Z,8.60
2022-11-20T21:13:16.954Z,8.60
2022-11-20T21:15:46.135Z,8.60
2022-11-20T21:18:12.988Z,8.60
2022-11-20T21:20:58.680Z,8.60
2022-11-20T21:23:25.585Z,8.60
2022-11-20T21:25:52.427Z,8.60
2022-11-20T21:28:19.302Z,8.50
2022-11-20T21:30:46.746Z,8.60
2022-11-20T21:33:14.076Z,8.50
2022-11-20T21:35:41.622Z,8.50
2022-11-20T21:38:08.515Z,8.50
2022-11-20T21:40:35.459Z,8.50
2022-11-20T21:43:02.291Z,8.50
2022-11-20T21:45:29.089Z,8.50
2022-11-20T21:47:55.986Z,8.50
2022-11-20T21:50:22.782Z,8.50
2022-11-20T21:52:49.612Z,8.50
2022-11-20T21:55:16.501Z,8.50
2022-11-20T21:57:43.376Z,8.40
2022-11-20T22:00:10.709Z,8.40
2022-11-20T22:02:38.883Z,8.40
2022-11-20T22:05:06.021Z,8.40
2022-11-20T22:07:33.047Z,8.40
2022-11-20T22:10:00.042Z,8.40
2022-11-20T22:12:26.888Z,8.40
2022-11-20T22:14:53.930Z,8.40
2022-11-20T22:17:40.722Z,8.40
2022-11-20T22:20:08.092Z,8.40
2022-11-20T22:22:35.057Z,8.30
2022-11-20T22:25:01.880Z,8.30
2022-11-20T22:27:28.717Z,8.30
2022-11-20T22:29:56.161Z,8.40
2022-11-20T22:32:22.948Z,8.30
2022-11-20T22:34:49.816Z,8.30
2022-11-20T22:37:16.619Z,8.30
2022-11-20T22:39:43.492Z,8.30
2022-11-20T22:42:10.303Z,8.30
2022-11-20T22:44:37.176Z,8.30
2022-11-20T22:47:08.691Z,8.30
2022-11-20T22:49:38.114Z,8.30
2022-11-20T22:52:05.041Z,8.30
2022-11-20T22:54:31.855Z,8.30
2022-11-20T22:56:58.720Z,8.30
2022-11-20T22:59:25.633Z,8.30
2022-11-20T23:01:52.524Z,8.30
2022-11-20T23:04:19.421Z,8.20
2022-11-20T23:06:46.272Z,8.30
2022-11-20T23:09:13.132Z,8.20
2022-11-20T23:11:40.048Z,8.30
2022-11-20T23:14:08.653Z,8.30
2022-11-20T23:16:35.994Z,8.30
2022-11-20T23:19:05.392Z,8.30
2022-11-20T23:21:32.462Z,8.30
2022-11-20T23:23:59.891Z,8.40
2022-11-20T23:26:28.270Z,8.40
2022-11-20T23:28:56.649Z,8.40
2022-11-20T23:31:24.007Z,8.40
2022-11-20T23:33:51.146Z,8.40
2022-11-20T23:36:18.089Z,8.40
2022-11-20T23:38:44.933Z,8.40
2022-11-20T23:41:12.595Z,8.40
2022-11-20T23:43:39.460Z,8.40
2022-11-20T23:46:06.535Z,8.40
2022-11-20T23:48:37.640Z,8.50
2022-11-20T23:51:05.583Z,8.50
2022-11-20T23:53:32.840Z,8.50
2022-11-20T23:56:01.906Z,8.50
2022-11-20T23:58:36.148Z,8.50
